Time;durP1;ratioP1;P1;durP2;ratioP2;P2;SDS_P1;SDS_P2;PMS_P1;PMS_P2;Temp;Humidity;BMP_temperature;BMP_pressure;BME280_temperature;BME280_humidity;BME280_pressure;Samples;Min_cycle;Max_cycle;Signal;HPM_P1;HPM_P2
2021/10/29 00:01:22;;;;;;;31.38;14.93;;;10.00;99.90;;;10.73;77.09;101129.84;5032793;27;20202;-79
2021/10/29 00:03:49;;;;;;;31.70;14.93;;;9.90;99.90;;;10.75;76.94;101141.13;5018382;28;20201;-79
2021/10/29 00:06:15;;;;;;;29.92;15.13;;;9.90;99.90;;;10.75;76.99;101133.28;5025335;28;20218;-78
2021/10/29 00:08:42;;;;;;;28.70;14.57;;;10.00;99.90;;;10.71;76.99;101131.66;5025676;28;20183;-79
2021/10/29 00:11:09;;;;;;;30.75;14.93;;;9.90;99.90;;;10.69;77.12;101125.59;5039254;28;20193;-80
2021/10/29 00:13:36;;;;;;;32.45;15.75;;;9.90;99.90;;;10.69;76.90;101125.59;5025662;28;20197;-80
2021/10/29 00:16:03;;;;;;;31.77;15.70;;;9.90;99.90;;;10.65;76.99;101124.00;5023183;28;20252;-79
2021/10/29 00:18:31;;;;;;;32.08;15.55;;;9.90;99.90;;;10.62;77.06;101124.06;5037166;28;20200;-80
2021/10/29 00:20:58;;;;;;;33.70;15.77;;;9.90;99.90;;;10.60;77.09;101131.16;5037786;28;20193;-79
2021/10/29 00:23:27;;;;;;;32.40;15.80;;;9.90;99.90;;;10.60;77.11;101125.91;5021869;27;20197;-79
2021/10/29 00:25:54;;;;;;;32.20;14.98;;;9.90;99.90;;;10.60;77.07;101124.13;5029978;28;20295;-79
2021/10/29 00:28:21;;;;;;;37.38;15.75;;;9.80;99.90;;;10.59;77.30;101121.56;5021437;28;20198;-78
2021/10/29 00:30:48;;;;;;;30.00;15.52;;;9.80;99.90;;;10.58;77.12;101128.56;5035423;28;20196;-79
2021/10/29 00:33:16;;;;;;;32.45;15.63;;;9.80;99.90;;;10.58;77.20;101125.09;5018917;28;20202;-79
2021/10/29 00:35:44;;;;;;;32.35;15.68;;;9.80;99.90;;;10.54;77.19;101121.72;5029033;27;20245;-78
2021/10/29 00:38:11;;;;;;;30.42;16.17;;;9.80;99.90;;;10.53;77.39;101113.91;5099462;27;20661;-78
2021/10/29 00:40:39;;;;;;;30.65;15.32;;;9.80;99.90;;;10.49;77.43;101102.69;5097448;27;20269;-79
2021/10/29 00:43:06;;;;;;;31.85;16.30;;;9.80;99.90;;;10.45;77.37;101100.22;5054656;27;20232;-79
2021/10/29 00:45:34;;;;;;;35.00;16.73;;;9.70;99.90;;;10.44;77.30;101109.81;5021101;28;20271;-79
2021/10/29 00:48:01;;;;;;;36.70;15.93;;;9.70;99.90;;;10.43;77.84;101107.25;5020435;28;20756;-79
2021/10/29 00:50:28;;;;;;;35.00;16.33;;;9.70;99.90;;;10.39;77.51;101100.38;5037311;28;20670;-79
2021/10/29 00:52:57;;;;;;;34.00;16.27;;;9.70;99.90;;;10.35;77.47;101098.78;5031124;27;20201;-78
2021/10/29 00:55:24;;;;;;;30.77;15.13;;;9.60;99.90;;;10.32;77.92;101101.47;5024062;28;20229;-80
2021/10/29 00:57:52;;;;;;;35.25;17.23;;;9.60;99.90;;;10.29;77.85;101101.56;5013229;28;20200;-79
2021/10/29 01:00:20;;;;;;;32.80;16.40;;;9.50;99.90;;;10.26;77.97;101099.06;5028751;28;20190;-79
2021/10/29 01:02:47;;;;;;;32.65;16.27;;;9.50;99.90;;;10.23;78.17;101099.16;5026724;28;20205;-78
2021/10/29 01:05:13;;;;;;;32.88;16.65;;;9.40;99.90;;;10.18;77.95;101095.81;5015274;28;20222;-80
2021/10/29 01:07:40;;;;;;;31.48;15.05;;;9.40;99.90;;;10.14;78.66;101100.28;5020446;28;20228;-79
2021/10/29 01:10:10;;;;;;;33.47;16.27;;;9.40;99.90;;;10.11;78.41;101090.75;5035923;27;20197;-79
2021/10/29 01:12:36;;;;;;;33.70;15.77;;;9.40;99.90;;;10.11;78.51;101100.38;5018964;28;20211;-80
2021/10/29 01:15:06;;;;;;;37.25;17.00;;;9.40;99.90;;;10.11;78.61;101100.38;5024923;28;20209;-79
2021/10/29 01:17:33;;;;;;;35.42;16.42;;;9.40;99.90;;;10.12;78.66;101096.84;5029386;28;20198;-78
2021/10/29 01:20:02;;;;;;;33.58;15.93;;;9.40;99.90;;;10.15;78.74;101090.69;5035235;28;20288;-78
2021/10/29 01:22:30;;;;;;;33.95;17.00;;;9.40;99.90;;;10.16;78.62;101090.63;5027601;28;20197;-78
2021/10/29 01:24:57;;;;;;;35.08;15.90;;;9.40;99.90;;;10.20;78.53;101086.19;5019911;28;20220;-78
2021/10/29 01:27:24;;;;;;;34.25;16.20;;;9.40;99.90;;;10.21;78.59;101080.91;5019696;28;20554;-80
2021/10/29 01:29:51;;;;;;;34.25;16.08;;;9.50;99.90;;;10.19;78.56;101092.28;5037790;28;20657;-78
2021/10/29 01:32:20;;;;;;;34.03;14.75;;;9.50;99.90;;;10.17;78.63;101091.47;5039188;27;20201;-77
2021/10/29 01:34:46;;;;;;;36.00;15.02;;;9.40;99.90;;;10.16;78.50;101081.94;5028205;27;20697;-77
2021/10/29 01:37:14;;;;;;;34.92;15.88;;;9.40;99.90;;;10.17;78.60;101078.41;5030802;28;20194;-78
2021/10/29 01:39:44;;;;;;;36.80;16.58;;;9.40;99.90;;;10.15;78.48;101080.22;5027699;28;20198;-78
2021/10/29 01:42:11;;;;;;;32.95;13.80;;;9.40;99.90;;;10.11;78.60;101082.91;5020764;28;20205;-78
2021/10/29 01:44:38;;;;;;;33.60;14.90;;;9.40;99.90;;;10.09;78.36;101089.97;5025183;28;20700;-80
2021/10/29 01:47:06;;;;;;;33.35;15.02;;;9.30;99.90;;;10.07;78.57;101094.34;5026371;28;20220;-79
2021/10/29 01:49:33;;;;;;;38.20;15.38;;;9.30;99.90;;;10.07;78.61;101088.25;5026663;28;20206;-79
2021/10/29 01:52:01;;;;;;;34.25;15.55;;;9.30;99.90;;;10.03;78.56;101082.25;5032418;27;20189;-78
2021/10/29 01:54:28;;;;;;;33.63;15.35;;;9.30;99.90;;;9.96;78.68;101078.09;5031406;27;20202;-80
2021/10/29 01:56:58;;;;;;;34.63;15.85;;;9.20;99.90;;;9.91;78.99;101082.59;5021974;28;20197;-80
2021/10/29 01:59:25;;;;;;;32.03;15.48;;;9.20;99.90;;;9.87;78.86;101088.84;5036447;28;20193;-79
2021/10/29 02:01:53;;;;;;;32.17;15.30;;;9.10;99.90;;;9.83;79.14;101079.34;5030350;27;20198;-79
2021/10/29 02:04:20;;;;;;;36.13;15.75;;;9.00;99.90;;;9.77;79.23;101078.69;5020092;28;20247;-79
2021/10/29 02:06:48;;;;;;;33.53;16.20;;;9.00;99.90;;;9.77;79.37;101089.13;5021827;28;20198;-79
2021/10/29 02:09:15;;;;;;;35.25;15.77;;;9.00;99.90;;;9.76;79.47;101085.66;5021606;28;20202;-79
2021/10/29 02:11:42;;;;;;;36.15;16.50;;;9.00;99.90;;;9.78;79.71;101081.25;5038888;28;20192;-78
2021/10/29 02:14:11;;;;;;;37.30;15.85;;;9.00;99.90;;;9.82;79.43;101082.88;5016812;28;20190;-78
2021/10/29 02:16:38;;;;;;;31.52;15.18;;;9.00;99.90;;;9.81;79.71;101069.88;5026162;28;20250;-77
2021/10/29 02:19:05;;;;;;;33.65;16.20;;;9.00;99.90;;;9.77;79.24;101071.72;5031851;28;20546;-78
2021/10/29 02:21:33;;;;;;;34.20;15.65;;;9.00;99.90;;;9.75;79.43;101080.47;5031901;28;20249;-78
2021/10/29 02:24:00;;;;;;;33.50;15.60;;;9.00;99.90;;;9.76;79.49;101077.81;5021707;28;20197;-77
2021/10/29 02:26:28;;;;;;;32.55;16.05;;;9.00;99.90;;;9.72;79.60;101070.97;5034311;28;20213;-79
2021/10/29 02:28:55;;;;;;;33.20;16.23;;;9.00;99.90;;;9.68;79.54;101073.69;5063271;28;20284;-79
2021/10/29 02:31:25;;;;;;;32.45;15.70;;;8.90;99.90;;;9.65;79.65;101068.56;5065315;28;20193;-79
2021/10/29 02:33:52;;;;;;;33.33;15.68;;;8.90;99.90;;;9.64;79.73;101072.97;5091720;27;20194;-79
2021/10/29 02:36:20;;;;;;;32.22;15.35;;;8.90;99.90;;;9.63;79.79;101063.38;5044271;28;20291;-79
2021/10/29 02:38:47;;;;;;;30.55;15.32;;;8.90;99.90;;;9.58;79.87;101065.28;5084744;28;20293;-79
2021/10/29 02:41:16;;;;;;;34.47;16.45;;;8.80;99.90;;;9.54;79.79;101065.41;5095371;28;20254;-79
2021/10/29 02:43:45;;;;;;;34.28;16.25;;;8.80;99.90;;;9.55;80.10;101078.44;5029238;28;20646;-78
2021/10/29 02:46:13;;;;;;;33.70;15.82;;;8.70;99.90;;;9.50;79.99;101069.84;5027779;28;20278;-78
2021/10/29 02:48:43;;;;;;;35.67;16.80;;;8.70;99.90;;;9.50;80.08;101069.84;5024729;28;20209;-79
2021/10/29 02:51:11;;;;;;;32.85;15.20;;;8.70;99.90;;;9.43;80.22;101068.31;5009200;28;20575;-79
2021/10/29 02:53:39;;;;;;;32.08;15.32;;;8.70;99.90;;;9.42;80.29;101066.59;5065977;27;20190;-79
2021/10/29 02:56:07;;;;;;;36.05;16.17;;;8.60;99.90;;;9.48;80.34;101073.41;5013373;28;20918;-79
2021/10/29 02:58:35;;;;;;;33.92;15.65;;;8.70;99.90;;;9.48;80.08;101065.56;5015679;28;20190;-80
2021/10/29 03:01:03;;;;;;;34.50;15.73;;;8.60;99.90;;;9.48;80.54;101074.25;5024628;28;20186;-79
2021/10/29 03:03:30;;;;;;;33.45;15.82;;;8.60;99.90;;;9.48;80.22;101071.66;5033096;28;20289;-79
2021/10/29 03:05:59;;;;;;;30.70;15.02;;;8.60;99.90;;;9.48;80.40;101065.56;5030188;28;20248;-78
2021/10/29 03:08:26;;;;;;;30.45;15.57;;;8.70;99.90;;;9.45;80.36;101066.50;5075054;27;20552;-79
2021/10/29 03:10:54;;;;;;;34.88;14.98;;;8.60;99.90;;;9.46;80.48;101067.38;5110740;27;20788;-79
2021/10/29 03:13:22;;;;;;;35.38;15.52;;;8.70;99.90;;;9.46;80.44;101064.78;5015889;28;20190;-78
2021/10/29 03:15:49;;;;;;;30.40;15.65;;;8.70;99.90;;;9.45;80.87;101074.34;5042349;27;20209;-79
2021/10/29 03:18:17;;;;;;;34.28;15.93;;;8.70;99.90;;;9.44;80.51;101077.88;5054711;28;20192;-80
2021/10/29 03:20:44;;;;;;;36.40;16.48;;;8.70;99.90;;;9.42;80.15;101077.06;5049690;28;20648;-80
2021/10/29 03:23:15;;;;;;;32.42;15.52;;;8.70;99.90;;;9.41;80.60;101071.88;5034891;28;20204;-80
2021/10/29 03:25:43;;;;;;;36.70;15.88;;;8.70;99.90;;;9.41;80.63;101080.53;5053474;27;20228;-79
2021/10/29 03:28:10;;;;;;;32.75;16.13;;;8.60;99.90;;;9.42;80.51;101081.41;5027669;28;20885;-79
2021/10/29 03:30:37;;;;;;;32.53;15.85;;;8.70;99.90;;;9.38;80.50;101080.63;5031742;28;20209;-80
2021/10/29 03:33:05;;;;;;;32.33;15.30;;;8.70;99.90;;;9.38;80.60;101085.84;5034983;28;20569;-79
2021/10/29 03:35:32;;;;;;;36.28;16.30;;;8.70;99.90;;;9.38;80.80;101080.63;5035080;28;20249;-79
2021/10/29 03:40:50;;;;;;;34.40;15.50;;;8.60;99.90;;;9.32;80.68;101065.13;5131663;27;20194;-80
2021/10/29 03:43:22;;;;;;;31.67;14.52;;;8.60;99.90;;;9.30;80.84;101071.28;5045387;27;20200;-80
2021/10/29 03:45:51;;;;;;;36.85;15.35;;;8.50;99.90;;;9.28;80.56;101067.84;5028707;28;20712;-80
2021/10/29 03:48:23;;;;;;;32.50;15.93;;;8.50;99.90;;;9.26;80.73;101062.66;5040237;27;20205;-81
2021/10/29 03:51:01;;;;;;;29.70;15.30;;;8.50;99.90;;;9.27;80.79;101061.78;5035672;28;20197;-80
2021/10/29 03:53:33;;;;;;;29.90;14.80;;;8.50;99.90;;;9.24;80.83;101064.50;5034060;28;20193;-79
2021/10/29 03:56:02;;;;;;;37.25;15.52;;;8.50;99.90;;;9.20;80.69;101059.38;5013019;28;20221;-80
2021/10/29 03:58:29;;;;;;;30.48;14.75;;;8.50;99.90;;;9.14;80.92;101060.41;5047866;27;20178;-79
2021/10/29 04:00:56;;;;;;;34.30;15.07;;;8.40;99.90;;;9.14;80.73;101064.75;5032427;28;20212;-79
2021/10/29 04:03:23;;;;;;;31.67;14.80;;;8.40;99.90;;;9.15;81.12;101069.94;5039480;28;20194;-79
2021/10/29 04:05:50;;;;;;;33.60;15.18;;;8.40;99.90;;;9.13;81.40;101066.50;5024782;28;20226;-79
2021/10/29 04:08:16;;;;;;;38.33;16.00;;;8.30;99.90;;;9.09;81.14;101057.06;5099655;27;20811;-80
2021/10/29 04:10:44;;;;;;;33.78;15.38;;;8.30;99.90;;;9.07;81.21;101064.06;5096008;27;20274;-79
2021/10/29 04:13:12;;;;;;;36.92;15.10;;;8.30;99.90;;;9.08;81.26;101063.16;5146224;27;20257;-78
2021/10/29 04:15:41;;;;;;;33.67;15.20;;;8.30;99.90;;;9.07;81.30;101068.44;5096866;27;20220;-80
2021/10/29 04:18:09;;;;;;;33.25;15.40;;;8.30;99.90;;;9.01;81.33;101065.97;5027096;28;20197;-80
2021/10/29 04:20:37;;;;;;;34.40;16.20;;;8.30;99.90;;;8.97;81.68;101062.59;5025738;28;20201;-80
2021/10/29 04:23:05;;;;;;;33.15;15.65;;;8.20;99.90;;;8.96;81.82;101071.31;5013952;28;20191;-80
2021/10/29 04:25:32;;;;;;;33.03;14.25;;;8.20;99.90;;;8.97;82.07;101066.94;5012991;28;20725;-79
2021/10/29 04:28:00;;;;;;;32.85;15.75;;;8.20;99.90;;;8.94;81.60;101067.03;5013273;28;20214;-80
2021/10/29 04:30:29;;;;;;;36.00;15.85;;;8.20;99.90;;;8.89;81.98;101070.59;5012825;28;20199;-80
2021/10/29 04:32:58;;;;;;;34.78;15.35;;;8.20;99.90;;;8.89;81.99;101068.00;5012628;28;20198;-80
2021/10/29 04:35:26;;;;;;;36.97;15.25;;;8.10;99.90;;;8.88;81.87;101063.69;5013508;28;20303;-80
2021/10/29 04:37:53;;;;;;;32.00;14.68;;;8.10;99.90;;;8.88;81.90;101065.41;5041278;27;20225;-80
2021/10/29 04:40:20;;;;;;;33.53;16.05;;;8.10;99.90;;;8.87;81.84;101061.13;5078198;27;20634;-79
2021/10/29 04:42:47;;;;;;;28.05;13.40;;;8.10;99.90;;;8.88;81.96;101073.25;5051414;27;20200;-80
2021/10/29 04:45:15;;;;;;;31.33;14.80;;;8.10;99.90;;;8.89;81.97;101074.97;5050894;27;20224;-80
2021/10/29 04:47:44;;;;;;;29.80;14.20;;;8.10;99.90;;;8.91;81.94;101070.56;5052994;28;20261;-80
2021/10/29 04:50:11;;;;;;;32.78;15.32;;;8.10;99.90;;;8.90;81.82;101074.06;5040994;28;20198;-80
2021/10/29 04:52:38;;;;;;;31.65;14.65;;;8.20;99.90;;;8.93;81.80;101075.72;5043385;27;20196;-80
2021/10/29 04:55:06;;;;;;;32.63;15.30;;;8.20;99.90;;;8.94;81.92;101069.63;5075501;27;20229;-80
2021/10/29 04:57:33;;;;;;;30.55;14.20;;;8.20;99.90;;;8.95;81.93;101071.34;5049971;28;20212;-80
2021/10/29 05:00:02;;;;;;;32.22;15.48;;;8.20;99.90;;;8.91;81.51;101073.16;5051443;27;20209;-80
2021/10/29 05:02:29;;;;;;;33.65;14.70;;;8.10;99.90;;;8.86;81.71;101072.44;5049686;28;20193;-79
2021/10/29 05:04:57;;;;;;;34.75;15.48;;;8.10;99.90;;;8.84;82.03;101067.25;5040028;28;20274;-80
2021/10/29 05:07:24;;;;;;;33.65;15.55;;;8.10;99.90;;;8.81;81.89;101067.31;5022999;28;20213;-78
2021/10/29 05:09:51;;;;;;;34.22;14.55;;;8.10;99.90;;;8.79;82.05;101068.28;5030753;28;20216;-81
2021/10/29 05:12:18;;;;;;;32.67;15.02;;;8.00;99.90;;;8.78;82.00;101067.41;5028311;28;20206;-80
2021/10/29 05:14:45;;;;;;;36.03;15.13;;;8.00;99.90;;;8.77;81.93;101068.28;5030406;28;20214;-79
2021/10/29 05:17:12;;;;;;;34.13;15.35;;;8.00;99.90;;;8.76;82.13;101060.50;5050281;28;20184;-80
2021/10/29 05:19:39;;;;;;;31.95;15.57;;;8.00;99.90;;;8.83;82.15;101064.69;5030672;27;20198;-80
2021/10/29 05:22:08;;;;;;;32.92;15.18;;;8.10;99.90;;;8.82;82.04;101062.97;5009041;28;20190;-80
2021/10/29 05:24:34;;;;;;;39.40;17.17;;;8.10;99.90;;;8.77;82.02;101063.06;5017848;28;20205;-80
2021/10/29 05:27:01;;;;;;;31.77;13.95;;;8.00;99.90;;;8.75;82.12;101064.03;5028619;28;20213;-80
2021/10/29 05:29:28;;;;;;;33.47;15.73;;;8.00;99.90;;;8.76;82.37;101063.09;5030935;28;20185;-80
2021/10/29 05:31:58;;;;;;;33.08;14.55;;;8.00;99.90;;;8.76;82.32;101057.88;5027731;28;20549;-80
2021/10/29 05:34:25;;;;;;;31.77;14.45;;;8.00;99.90;;;8.78;82.22;101063.94;5010855;28;20194;-79
2021/10/29 05:36:51;;;;;;;32.60;14.35;;;8.00;99.90;;;8.78;82.15;101066.53;5013651;28;20190;-80
2021/10/29 05:39:19;;;;;;;31.48;14.30;;;8.10;99.90;;;8.79;82.07;101057.84;5061839;27;20292;-80
2021/10/29 05:41:48;;;;;;;33.58;14.63;;;8.10;99.90;;;8.78;82.25;101069.16;5022246;28;20194;-80
2021/10/29 05:44:16;;;;;;;31.33;15.02;;;8.10;99.90;;;8.78;82.19;101074.38;5016162;28;20252;-80
2021/10/29 05:46:44;;;;;;;35.90;14.45;;;8.00;99.90;;;8.75;82.05;101070.09;5038534;28;20213;-80
2021/10/29 05:49:13;;;;;;;31.38;15.07;;;8.10;99.90;;;8.73;82.19;101063.19;5050801;28;20246;-80
2021/10/29 05:51:44;;;;;;;31.02;14.23;;;8.00;99.90;;;8.73;82.19;101071.00;5051700;28;20189;-80
2021/10/29 05:54:23;;;;;;;31.20;14.02;;;8.00;99.90;;;8.73;82.10;101081.44;5029352;28;20197;-79
2021/10/29 05:56:51;;;;;;;30.42;13.90;;;8.00;99.90;;;8.71;82.08;101070.19;5028123;28;20194;-80
2021/10/29 05:59:18;;;;;;;33.08;14.00;;;7.90;99.90;;;8.68;82.21;101072.88;5027622;28;20198;-80
2021/10/29 06:01:45;;;;;;;29.40;13.82;;;8.00;99.90;;;8.66;82.42;101077.28;5033757;28;20661;-79
2021/10/29 06:04:12;;;;;;;33.05;14.60;;;8.00;99.90;;;8.64;82.25;101073.88;5030076;28;20585;-79
2021/10/29 06:06:40;;;;;;;32.15;14.43;;;7.90;99.90;;;8.62;82.52;101070.44;5031496;28;20209;-79
2021/10/29 06:09:07;;;;;;;30.85;14.45;;;8.00;99.90;;;8.64;82.56;101079.09;5034081;28;20205;-80
2021/10/29 06:11:33;;;;;;;36.80;14.43;;;8.00;99.90;;;8.63;82.34;101075.59;5072919;28;20560;-79
2021/10/29 06:14:02;;;;;;;34.83;14.10;;;8.00;99.90;;;8.60;82.30;101073.09;5029745;28;20188;-80
2021/10/29 06:16:29;;;;;;;34.42;15.02;;;8.00;99.90;;;8.61;82.64;101076.53;5025473;28;20214;-80
2021/10/29 06:18:56;;;;;;;30.13;14.25;;;8.00;99.90;;;8.60;82.38;101077.44;5014970;28;21899;-78
2021/10/29 06:21:31;;;;;;;30.83;14.38;;;7.90;99.90;;;8.59;82.30;101076.56;5020314;28;20201;-78
2021/10/29 06:24:01;;;;;;;28.75;13.77;;;7.90;99.90;;;8.60;82.44;101077.44;5040209;28;20225;-79
2021/10/29 06:26:38;;;;;;;33.42;14.35;;;7.90;99.90;;;8.61;82.29;101079.13;5046992;28;20232;-77
2021/10/29 06:29:07;;;;;;;32.85;15.00;;;7.90;99.90;;;8.63;82.30;101078.22;5042685;28;20217;-77
2021/10/29 06:31:33;;;;;;;31.20;14.88;;;7.90;99.90;;;8.66;82.19;101085.09;5033621;28;20181;-79
2021/10/29 06:34:00;;;;;;;31.55;14.45;;;8.00;99.90;;;8.65;82.24;101079.03;5014985;28;20199;-80
2021/10/29 06:36:29;;;;;;;31.88;13.88;;;7.90;99.90;;;8.67;82.13;101089.44;5017654;28;20649;-79
2021/10/29 06:38:57;;;;;;;31.08;14.75;;;8.00;99.90;;;8.63;82.16;101079.97;5019381;28;20197;-79
2021/10/29 06:41:24;;;;;;;29.52;13.25;;;8.00;99.90;;;8.59;82.02;101075.72;5103744;27;20805;-80
2021/10/29 06:44:03;;;;;;;32.75;14.52;;;7.90;99.90;;;8.56;82.20;101078.38;5039578;28;20186;-78
2021/10/29 06:46:37;;;;;;;32.95;14.35;;;7.90;99.90;;;8.55;82.27;101080.16;5038664;28;20244;-80
2021/10/29 06:49:10;;;;;;;30.70;14.35;;;7.90;99.90;;;8.56;82.46;101089.69;5032139;28;20281;-77
2021/10/29 06:59:58;;;;;;;33.00;14.35;;;8.00;99.90;;;8.70;82.15;101099.78;5030585;28;20284;-76
2021/10/29 07:11:34;;;;;;;32.85;14.40;;;8.10;99.90;;;8.74;82.15;101093.63;5063344;27;20225;-75
2021/10/29 07:41:23;;;;;;;33.50;14.57;;;8.10;99.90;;;8.82;81.25;101089.91;5055804;27;20281;-78
2021/10/29 07:43:50;;;;;;;31.48;14.00;;;8.10;99.90;;;8.88;81.24;101100.22;5108223;27;20215;-77
2021/10/29 07:46:17;;;;;;;33.22;14.85;;;8.20;99.90;;;8.91;81.19;101107.09;5077395;27;20304;-78
2021/10/29 07:48:45;;;;;;;36.13;14.80;;;8.20;99.90;;;8.96;81.16;101112.22;5057123;27;20686;-77
2021/10/29 07:51:15;;;;;;;33.38;14.13;;;8.20;99.90;;;9.01;81.24;101115.56;5027301;28;20223;-77
2021/10/29 07:53:43;;;;;;;35.80;14.32;;;8.30;99.90;;;9.03;81.05;101114.63;5035736;28;20726;-75
2021/10/29 07:56:10;;;;;;;35.88;15.02;;;8.40;99.90;;;9.08;81.02;101106.66;5056070;27;20217;-77
2021/10/29 07:58:37;;;;;;;30.08;14.45;;;8.50;99.90;;;9.12;80.98;101108.31;5039198;27;20194;-77
2021/10/29 08:01:05;;;;;;;28.10;13.73;;;8.50;99.90;;;9.15;80.86;101116.06;5037456;27;20591;-77
2021/10/29 08:03:32;;;;;;;32.33;13.95;;;8.50;99.90;;;9.19;80.72;101113.38;5027110;28;20198;-78
2021/10/29 08:05:59;;;;;;;29.38;13.75;;;8.50;99.90;;;9.25;80.57;101105.38;5031104;27;20233;-76
2021/10/29 08:08:27;;;;;;;31.40;14.68;;;8.60;99.90;;;9.29;80.64;101112.22;5030134;27;20228;-77
2021/10/29 08:10:54;;;;;;;29.58;13.93;;;8.60;99.90;;;9.31;80.54;101115.63;5028157;27;20194;-76
2021/10/29 08:13:21;;;;;;;33.33;15.52;;;8.70;99.90;;;9.33;79.90;101118.19;5022721;28;20196;-77
2021/10/29 08:15:53;;;;;;;29.15;12.65;;;8.70;99.90;;;9.34;80.35;101120.81;5033995;28;20217;-74
2021/10/29 08:18:21;;;;;;;27.73;13.75;;;8.70;99.90;;;9.36;79.92;101116.38;5014073;28;20206;-79
2021/10/29 08:20:48;;;;;;;30.48;13.60;;;8.80;99.90;;;9.42;80.09;101116.22;5035706;28;20224;-78
2021/10/29 08:23:15;;;;;;;29.45;13.60;;;8.90;99.90;;;9.48;79.83;101118.66;5022158;28;20197;-75
2021/10/29 08:25:44;;;;;;;26.05;13.13;;;8.90;99.90;;;9.55;79.67;101111.53;5030974;28;20213;-78
2021/10/29 08:28:11;;;;;;;33.58;14.27;;;9.00;99.90;;;9.60;79.68;101109.63;5048192;28;20211;-77
2021/10/29 08:30:38;;;;;;;28.55;13.93;;;9.00;99.90;;;9.64;79.51;101101.69;5032575;27;20654;-78
2021/10/29 08:33:05;;;;;;;37.17;15.02;;;9.10;99.90;;;9.67;79.21;101108.56;5039011;28;20191;-77
2021/10/29 08:35:32;;;;;;;34.25;14.65;;;9.10;99.90;;;9.70;79.35;101101.50;5034245;28;20203;-77
2021/10/29 08:37:59;;;;;;;30.55;14.32;;;9.20;99.90;;;9.75;78.93;101101.38;5010826;28;20205;-77
2021/10/29 08:40:26;;;;;;;27.80;14.30;;;9.20;99.90;;;9.75;78.90;101097.00;5013666;28;20194;-77
2021/10/29 08:42:54;;;;;;;31.65;15.23;;;9.20;99.90;;;9.75;79.06;101091.78;5112799;27;20236;-77
2021/10/29 08:45:21;;;;;;;29.50;14.77;;;9.30;99.90;;;9.77;79.08;101099.59;5030393;28;20693;-78
2021/10/29 08:47:49;;;;;;;30.25;13.10;;;9.30;99.90;;;9.85;78.79;101095.00;5026640;28;20216;-77
2021/10/29 08:50:19;;;;;;;35.65;14.25;;;9.40;99.90;;;9.94;78.44;101081.66;5041116;28;20285;-76
2021/10/29 08:52:48;;;;;;;36.78;17.20;;;9.40;99.90;;;10.03;78.60;101082.25;5029593;28;20208;-76
2021/10/29 08:55:23;;;;;;;30.77;14.73;;;9.50;99.90;;;10.13;78.50;101087.25;5030599;28;20686;-78
2021/10/29 08:57:50;;;;;;;30.27;14.15;;;9.60;99.90;;;10.16;78.38;101076.69;5029643;28;20276;-78
2021/10/29 09:00:23;;;;;;;30.00;14.02;;;9.60;99.90;;;10.21;78.21;101087.88;5025415;28;20225;-78
2021/10/29 09:02:59;;;;;;;28.95;13.88;;;9.70;99.90;;;10.27;78.14;101082.44;5031178;28;20660;-77
2021/10/29 09:05:33;;;;;;;32.13;14.43;;;9.70;99.90;;;10.33;77.86;101080.53;5038737;27;20217;-76
2021/10/29 09:08:14;;;;;;;27.92;13.27;;;9.80;99.90;;;10.38;77.71;101077.75;5029677;27;20204;-77
2021/10/29 09:11:13;;;;;;;25.30;12.43;;;9.80;99.90;;;10.40;77.34;101075.97;5031290;28;20193;-78
2021/10/29 09:17:04;;;;;;;26.92;13.00;;;10.00;99.90;;;10.50;77.14;101077.38;5018967;28;20269;-76
2021/10/29 09:31:26;;;;;;;26.60;12.65;;;10.30;99.90;;;10.84;76.44;101073.63;5020912;28;20190;-76
2021/10/29 09:34:02;;;;;;;27.80;12.80;;;10.40;99.90;;;10.90;76.15;101072.56;5038681;27;20204;-78
2021/10/29 09:36:33;;;;;;;27.95;12.57;;;10.40;99.90;;;10.95;76.22;101078.53;5015459;27;20217;-76
2021/10/29 09:39:05;;;;;;;26.60;12.68;;;10.50;99.90;;;11.00;75.88;101074.81;5019344;28;20212;-77
2021/10/29 09:42:00;;;;;;;27.13;11.77;;;10.50;99.90;;;11.06;75.66;101071.16;5022279;27;20186;-80
2021/10/29 09:44:43;;;;;;;29.33;13.45;;;10.60;99.90;;;11.13;75.82;101075.28;5020692;28;20198;-79
2021/10/29 09:47:11;;;;;;;26.08;12.70;;;10.70;99.90;;;11.17;75.25;101084.72;5023042;28;20724;-77
2021/10/29 09:49:50;;;;;;;28.40;12.80;;;10.70;99.90;;;11.22;75.50;101077.56;5032586;27;20222;-79
2021/10/29 09:52:47;;;;;;;28.58;12.52;;;10.80;99.90;;;11.32;75.46;101081.56;5028314;28;20193;-77
2021/10/29 09:55:19;;;;;;;26.00;12.10;;;10.90;99.90;;;11.59;74.98;101075.38;5046216;27;20626;-78
2021/10/29 09:57:47;;;;;;;24.85;11.30;;;11.20;99.90;;;11.93;73.99;101075.88;5031322;28;20679;-79
2021/10/29 10:00:16;;;;;;;27.65;12.20;;;11.40;99.90;;;12.05;72.90;101074.56;5037521;27;20261;-79
2021/10/29 10:02:45;;;;;;;24.45;11.77;;;11.50;99.90;;;12.00;72.74;101072.13;5044235;27;20201;-79
2021/10/29 10:05:16;;;;;;;25.08;11.85;;;11.50;99.90;;;12.01;73.02;101078.22;5081474;27;20217;-77
2021/10/29 10:07:47;;;;;;;26.27;11.90;;;11.60;99.90;;;12.12;72.58;101076.06;5021884;27;20202;-77
2021/10/29 10:10:15;;;;;;;25.45;12.23;;;11.80;99.90;;;12.44;72.40;101073.06;5096678;27;20194;-78
2021/10/29 10:12:45;;;;;;;25.23;11.43;;;12.10;99.90;;;12.74;71.54;101069.19;5052102;28;20194;-79
2021/10/29 10:15:14;;;;;;;23.58;10.88;;;12.30;99.90;;;12.87;70.60;101069.53;5071882;28;20221;-77
2021/10/29 10:17:41;;;;;;;25.35;11.95;;;12.30;99.90;;;12.80;70.57;101070.69;5027910;28;20195;-78
2021/10/29 10:20:10;;;;;;;24.08;11.55;;;12.30;99.90;;;12.68;70.71;101071.19;5013948;28;20236;-79
2021/10/29 10:22:43;;;;;;;23.88;12.00;;;12.20;99.90;;;12.56;70.92;101068.16;5075200;28;20201;-79
2021/10/29 10:25:17;;;;;;;25.13;11.20;;;12.10;99.90;;;12.52;71.25;101061.28;5048421;28;20209;-79
2021/10/29 10:28:08;;;;;;;22.02;10.90;;;12.10;99.90;;;12.50;71.38;101050.03;5029757;28;20258;-81
2021/10/29 10:30:49;;;;;;;20.40;11.23;;;12.10;99.90;;;12.59;70.91;101061.94;5039194;28;20197;-79
2021/10/29 10:42:15;;;;;;;24.90;11.20;;;12.20;99.90;;;12.58;71.05;101063.69;5026240;28;20190;-80
2021/10/29 10:45:02;;;;;;;25.08;11.98;;;12.20;99.90;;;12.57;71.24;101053.25;5097015;27;20210;-79
2021/10/29 10:47:36;;;;;;;23.48;10.95;;;12.20;99.90;;;12.59;71.17;101057.53;5134433;28;20213;-78
2021/10/29 10:50:15;;;;;;;25.50;11.32;;;12.20;99.90;;;12.61;71.20;101055.69;5022431;28;20206;-77
2021/10/29 10:53:27;;;;;;;23.30;10.93;;;12.30;99.90;;;12.64;71.08;101058.19;5095203;28;20269;-80
2021/10/29 10:56:16;;;;;;;22.58;10.77;;;12.20;99.90;;;12.68;71.12;101051.03;5026761;28;20209;-78
2021/10/29 10:59:01;;;;;;;23.40;11.68;;;12.40;99.90;;;12.75;71.25;101047.25;5059473;28;20225;-80
2021/10/29 11:07:37;;;;;;;24.20;11.25;;;12.70;99.90;;;12.96;70.78;101024.50;5008127;28;20194;-76
2021/10/29 11:10:07;;;;;;;26.27;12.18;;;12.70;99.90;;;12.97;70.90;101018.31;5105122;28;20291;-76
2021/10/29 11:13:06;;;;;;;23.27;11.57;;;12.70;99.90;;;12.97;70.89;101013.94;5029567;27;20580;-76
2021/10/29 11:15:35;;;;;;;29.00;12.60;;;12.70;99.90;;;12.98;70.59;101012.16;5079788;27;20228;-77
2021/10/29 11:18:22;;;;;;;23.58;11.98;;;12.70;99.90;;;12.99;70.39;101004.22;5051067;27;20197;-75
2021/10/29 11:20:51;;;;;;;23.02;11.38;;;12.70;99.90;;;13.03;70.47;101004.97;5092762;27;20194;-77
2021/10/29 11:23:24;;;;;;;24.33;11.65;;;12.70;99.90;;;13.06;70.32;101004.84;5055379;27;20250;-75
2021/10/29 11:25:58;;;;;;;27.02;11.85;;;12.70;99.90;;;13.10;70.30;101006.38;5082094;27;20209;-77
2021/10/29 11:28:33;;;;;;;27.55;12.50;;;12.70;99.90;;;13.14;70.02;100994.84;5033085;28;20215;-76
2021/10/29 11:31:01;;;;;;;22.05;10.50;;;12.70;99.90;;;13.15;69.69;100992.13;5035048;27;20910;-76
2021/10/29 11:33:29;;;;;;;24.80;11.15;;;12.80;99.90;;;13.18;69.69;100985.91;5038848;27;20292;-80
2021/10/29 11:36:01;;;;;;;23.60;11.40;;;12.80;99.90;;;13.21;69.69;100989.22;5062935;27;20206;-78